sensor_id;sensor_type;location;lat;lon;timestamp;pressure;altitude;pressure_sealevel;temperature
9119;BMP180;4594;50.994;7.126;2024-02-26T00:01:43;98822.00;;;12.90
9119;BMP180;4594;50.994;7.126;2024-02-26T00:04:12;98830.00;;;12.90
9119;BMP180;4594;50.994;7.126;2024-02-26T00:06:39;98834.00;;;12.80
9119;BMP180;4594;50.994;7.126;2024-02-26T00:09:07;98856.00;;;12.80
9119;BMP180;4594;50.994;7.126;2024-02-26T00:11:34;98843.00;;;12.70
9119;BMP180;4594;50.994;7.126;2024-02-26T00:14:00;98835.00;;;12.70
9119;BMP180;4594;50.994;7.126;2024-02-26T00:16:26;98846.00;;;12.70
9119;BMP180;4594;50.994;7.126;2024-02-26T00:18:51;98840.00;;;12.60
9119;BMP180;4594;50.994;7.126;2024-02-26T00:21:17;98845.00;;;12.60
9119;BMP180;4594;50.994;7.126;2024-02-26T00:23:43;98830.00;;;12.60
9119;BMP180;4594;50.994;7.126;2024-02-26T00:26:09;98821.00;;;12.50
9119;BMP180;4594;50.994;7.126;2024-02-26T00:28:36;98825.00;;;12.50
9119;BMP180;4594;50.994;7.126;2024-02-26T00:31:03;98847.00;;;12.40
9119;BMP180;4594;50.994;7.126;2024-02-26T00:33:29;98840.00;;;12.40
9119;BMP180;4594;50.994;7.126;2024-02-26T00:35:54;98820.00;;;12.30
9119;BMP180;4594;50.994;7.126;2024-02-26T00:38:20;98832.00;;;12.30
9119;BMP180;4594;50.994;7.126;2024-02-26T00:40:46;98803.00;;;12.30
9119;BMP180;4594;50.994;7.126;2024-02-26T00:43:12;98828.00;;;12.20
9119;BMP180;4594;50.994;7.126;2024-02-26T00:45:38;98822.00;;;12.20
9119;BMP180;4594;50.994;7.126;2024-02-26T00:48:04;98826.00;;;12.20
9119;BMP180;4594;50.994;7.126;2024-02-26T00:50:34;98823.00;;;12.10
9119;BMP180;4594;50.994;7.126;2024-02-26T00:53:01;98800.00;;;12.00
9119;BMP180;4594;50.994;7.126;2024-02-26T00:55:27;98813.00;;;12.00
9119;BMP180;4594;50.994;7.126;2024-02-26T00:57:53;98815.00;;;12.00
9119;BMP180;4594;50.994;7.126;2024-02-26T01:00:19;98810.00;;;11.90
9119;BMP180;4594;50.994;7.126;2024-02-26T01:02:45;98798.00;;;11.90
9119;BMP180;4594;50.994;7.126;2024-02-26T01:05:14;98818.00;;;11.80
9119;BMP180;4594;50.994;7.126;2024-02-26T01:07:40;98827.00;;;11.80
9119;BMP180;4594;50.994;7.126;2024-02-26T01:10:07;98816.00;;;11.80
9119;BMP180;4594;50.994;7.126;2024-02-26T01:12:33;98835.00;;;11.80
9119;BMP180;4594;50.994;7.126;2024-02-26T01:15:00;98822.00;;;11.80
9119;BMP180;4594;50.994;7.126;2024-02-26T01:17:26;98805.00;;;11.80
9119;BMP180;4594;50.994;7.126;2024-02-26T01:19:52;98809.00;;;11.80
9119;BMP180;4594;50.994;7.126;2024-02-26T01:22:19;98828.00;;;11.80
9119;BMP180;4594;50.994;7.126;2024-02-26T01:24:44;98810.00;;;11.80
9119;BMP180;4594;50.994;7.126;2024-02-26T01:27:10;98801.00;;;11.80
9119;BMP180;4594;50.994;7.126;2024-02-26T01:29:36;98820.00;;;11.70
9119;BMP180;4594;50.994;7.126;2024-02-26T01:32:01;98811.00;;;11.70
9119;BMP180;4594;50.994;7.126;2024-02-26T01:34:28;98806.00;;;11.60
9119;BMP180;4594;50.994;7.126;2024-02-26T01:36:53;98803.00;;;11.50
9119;BMP180;4594;50.994;7.126;2024-02-26T01:39:21;98815.00;;;11.50
9119;BMP180;4594;50.994;7.126;2024-02-26T01:41:47;98819.00;;;11.40
9119;BMP180;4594;50.994;7.126;2024-02-26T01:44:13;98813.00;;;11.40
9119;BMP180;4594;50.994;7.126;2024-02-26T01:46:39;98819.00;;;11.30
9119;BMP180;4594;50.994;7.126;2024-02-26T01:49:08;98785.00;;;11.30
9119;BMP180;4594;50.994;7.126;2024-02-26T01:51:35;98783.00;;;11.20
9119;BMP180;4594;50.994;7.126;2024-02-26T01:54:03;98796.00;;;11.20
9119;BMP180;4594;50.994;7.126;2024-02-26T01:56:31;98795.00;;;11.20
9119;BMP180;4594;50.994;7.126;2024-02-26T01:59:01;98796.00;;;11.10
9119;BMP180;4594;50.994;7.126;2024-02-26T02:01:32;98798.00;;;11.10
9119;BMP180;4594;50.994;7.126;2024-02-26T02:03:59;98786.00;;;11.00
9119;BMP180;4594;50.994;7.126;2024-02-26T02:06:26;98777.00;;;11.00
9119;BMP180;4594;50.994;7.126;2024-02-26T02:08:54;98775.00;;;10.90
9119;BMP180;4594;50.994;7.126;2024-02-26T02:11:20;98792.00;;;10.90
9119;BMP180;4594;50.994;7.126;2024-02-26T02:13:46;98780.00;;;10.90
9119;BMP180;4594;50.994;7.126;2024-02-26T02:16:13;98769.00;;;10.90
9119;BMP180;4594;50.994;7.126;2024-02-26T02:18:38;98765.00;;;10.90
9119;BMP180;4594;50.994;7.126;2024-02-26T02:21:04;98763.00;;;10.90
9119;BMP180;4594;50.994;7.126;2024-02-26T02:23:30;98784.00;;;10.90
9119;BMP180;4594;50.994;7.126;2024-02-26T02:25:58;98775.00;;;10.90
9119;BMP180;4594;50.994;7.126;2024-02-26T02:28:26;98780.00;;;10.90
9119;BMP180;4594;50.994;7.126;2024-02-26T02:30:53;98782.00;;;10.90
9119;BMP180;4594;50.994;7.126;2024-02-26T02:33:21;98773.00;;;10.90
9119;BMP180;4594;50.994;7.126;2024-02-26T02:35:48;98782.00;;;10.90
9119;BMP180;4594;50.994;7.126;2024-02-26T02:38:14;98767.00;;;10.90
9119;BMP180;4594;50.994;7.126;2024-02-26T02:40:39;98752.00;;;10.90
9119;BMP180;4594;50.994;7.126;2024-02-26T02:43:05;98767.00;;;10.80
9119;BMP180;4594;50.994;7.126;2024-02-26T02:45:31;98761.00;;;10.80
9119;BMP180;4594;50.994;7.126;2024-02-26T02:47:57;98758.00;;;10.80
9119;BMP180;4594;50.994;7.126;2024-02-26T02:50:22;98765.00;;;10.80
9119;BMP180;4594;50.994;7.126;2024-02-26T02:52:48;98763.00;;;10.80
9119;BMP180;4594;50.994;7.126;2024-02-26T02:55:16;98787.00;;;10.80
9119;BMP180;4594;50.994;7.126;2024-02-26T02:57:42;98766.00;;;10.80
9119;BMP180;4594;50.994;7.126;2024-02-26T03:00:11;98780.00;;;10.80
9119;BMP180;4594;50.994;7.126;2024-02-26T03:02:37;98773.00;;;10.80
9119;BMP180;4594;50.994;7.126;2024-02-26T03:05:04;98779.00;;;10.80
9119;BMP180;4594;50.994;7.126;2024-02-26T03:07:30;98770.00;;;10.80
9119;BMP180;4594;50.994;7.126;2024-02-26T03:09:56;98777.00;;;10.80
9119;BMP180;4594;50.994;7.126;2024-02-26T03:12:21;98768.00;;;10.80
9119;BMP180;4594;50.994;7.126;2024-02-26T03:14:47;98773.00;;;10.80
9119;BMP180;4594;50.994;7.126;2024-02-26T03:17:13;98780.00;;;10.80
9119;BMP180;4594;50.994;7.126;2024-02-26T03:19:38;98764.00;;;10.80
9119;BMP180;4594;50.994;7.126;2024-02-26T03:22:04;98769.00;;;10.80
9119;BMP180;4594;50.994;7.126;2024-02-26T03:24:30;98774.00;;;10.80
9119;BMP180;4594;50.994;7.126;2024-02-26T03:26:56;98761.00;;;10.80
9119;BMP180;4594;50.994;7.126;2024-02-26T03:29:22;98766.00;;;10.80
9119;BMP180;4594;50.994;7.126;2024-02-26T03:31:47;98745.00;;;10.80
9119;BMP180;4594;50.994;7.126;2024-02-26T03:34:13;98740.00;;;10.80
9119;BMP180;4594;50.994;7.126;2024-02-26T03:36:41;98769.00;;;10.80
9119;BMP180;4594;50.994;7.126;2024-02-26T03:39:07;98756.00;;;10.80
9119;BMP180;4594;50.994;7.126;2024-02-26T03:41:36;98755.00;;;10.70
9119;BMP180;4594;50.994;7.126;2024-02-26T03:44:02;98758.00;;;10.70
9119;BMP180;4594;50.994;7.126;2024-02-26T03:46:28;98758.00;;;10.70
9119;BMP180;4594;50.994;7.126;2024-02-26T03:48:53;98759.00;;;10.70
9119;BMP180;4594;50.994;7.126;2024-02-26T03:51:19;98770.00;;;10.70
9119;BMP180;4594;50.994;7.126;2024-02-26T03:53:45;98744.00;;;10.70
9119;BMP180;4594;50.994;7.126;2024-02-26T03:56:14;98764.00;;;10.70
9119;BMP180;4594;50.994;7.126;2024-02-26T03:58:39;98774.00;;;10.70
9119;BMP180;4594;50.994;7.126;2024-02-26T04:01:08;98779.00;;;10.70
9119;BMP180;4594;50.994;7.126;2024-02-26T04:03:34;98781.00;;;10.70
9119;BMP180;4594;50.994;7.126;2024-02-26T04:06:01;98761.00;;;10.70
9119;BMP180;4594;50.994;7.126;2024-02-26T04:08:27;98771.00;;;10.70
9119;BMP180;4594;50.994;7.126;2024-02-26T04:10:52;98753.00;;;10.70
9119;BMP180;4594;50.994;7.126;2024-02-26T04:13:18;98759.00;;;10.60
9119;BMP180;4594;50.994;7.126;2024-02-26T04:15:44;98776.00;;;10.60
9119;BMP180;4594;50.994;7.126;2024-02-26T04:18:10;98764.00;;;10.60
9119;BMP180;4594;50.994;7.126;2024-02-26T04:20:35;98784.00;;;10.60
9119;BMP180;4594;50.994;7.126;2024-02-26T04:23:03;98786.00;;;10.60
9119;BMP180;4594;50.994;7.126;2024-02-26T04:25:29;98806.00;;;10.60
9119;BMP180;4594;50.994;7.126;2024-02-26T04:27:55;98805.00;;;10.60
9119;BMP180;4594;50.994;7.126;2024-02-26T04:30:20;98806.00;;;10.60
9119;BMP180;4594;50.994;7.126;2024-02-26T04:32:46;98812.00;;;10.70
9119;BMP180;4594;50.994;7.126;2024-02-26T04:35:12;98799.00;;;10.70
9119;BMP180;4594;50.994;7.126;2024-02-26T04:37:37;98815.00;;;10.70
9119;BMP180;4594;50.994;7.126;2024-02-26T04:40:04;98814.00;;;10.70
9119;BMP180;4594;50.994;7.126;2024-02-26T04:42:30;98829.00;;;10.70
9119;BMP180;4594;50.994;7.126;2024-02-26T04:44:55;98820.00;;;10.70
9119;BMP180;4594;50.994;7.126;2024-02-26T04:47:21;98827.00;;;10.70
9119;BMP180;4594;50.994;7.126;2024-02-26T04:49:49;98821.00;;;10.80
9119;BMP180;4594;50.994;7.126;2024-02-26T04:52:15;98825.00;;;10.70
9119;BMP180;4594;50.994;7.126;2024-02-26T04:54:41;98825.00;;;10.80
9119;BMP180;4594;50.994;7.126;2024-02-26T04:57:07;98827.00;;;10.70
9119;BMP180;4594;50.994;7.126;2024-02-26T04:59:32;98833.00;;;10.70
9119;BMP180;4594;50.994;7.126;2024-02-26T05:01:58;98838.00;;;10.70
9119;BMP180;4594;50.994;7.126;2024-02-26T05:04:24;98842.00;;;10.70
9119;BMP180;4594;50.994;7.126;2024-02-26T05:06:49;98820.00;;;10.70
9119;BMP180;4594;50.994;7.126;2024-02-26T05:09:15;98838.00;;;10.70
9119;BMP180;4594;50.994;7.126;2024-02-26T05:11:40;98830.00;;;10.70
9119;BMP180;4594;50.994;7.126;2024-02-26T05:14:06;98825.00;;;10.70
9119;BMP180;4594;50.994;7.126;2024-02-26T05:16:32;98810.00;;;10.70
9119;BMP180;4594;50.994;7.126;2024-02-26T05:18:57;98824.00;;;10.70
9119;BMP180;4594;50.994;7.126;2024-02-26T05:21:23;98831.00;;;10.60
9119;BMP180;4594;50.994;7.126;2024-02-26T05:23:49;98826.00;;;10.60
9119;BMP180;4594;50.994;7.126;2024-02-26T05:26:22;98826.00;;;10.60
9119;BMP180;4594;50.994;7.126;2024-02-26T05:28:48;98822.00;;;10.60
9119;BMP180;4594;50.994;7.126;2024-02-26T05:31:15;98816.00;;;10.60
9119;BMP180;4594;50.994;7.126;2024-02-26T05:33:41;98813.00;;;10.60
9119;BMP180;4594;50.994;7.126;2024-02-26T05:36:06;98821.00;;;10.60
9119;BMP180;4594;50.994;7.126;2024-02-26T05:38:32;98817.00;;;10.60
9119;BMP180;4594;50.994;7.126;2024-02-26T05:40:58;98832.00;;;10.60
9119;BMP180;4594;50.994;7.126;2024-02-26T05:43:27;98833.00;;;10.60
9119;BMP180;4594;50.994;7.126;2024-02-26T05:45:53;98829.00;;;10.60
9119;BMP180;4594;50.994;7.126;2024-02-26T05:48:19;98834.00;;;10.60
9119;BMP180;4594;50.994;7.126;2024-02-26T05:50:46;98846.00;;;10.60
9119;BMP180;4594;50.994;7.126;2024-02-26T05:53:12;98844.00;;;10.60
9119;BMP180;4594;50.994;7.126;2024-02-26T05:55:38;98845.00;;;10.60
9119;BMP180;4594;50.994;7.126;2024-02-26T05:58:04;98858.00;;;10.60
9119;BMP180;4594;50.994;7.126;2024-02-26T06:00:30;98854.00;;;10.60
9119;BMP180;4594;50.994;7.126;2024-02-26T06:02:56;98853.00;;;10.60
9119;BMP180;4594;50.994;7.126;2024-02-26T06:05:21;98851.00;;;10.60
9119;BMP180;4594;50.994;7.126;2024-02-26T06:07:47;98851.00;;;10.60
9119;BMP180;4594;50.994;7.126;2024-02-26T06:10:13;98839.00;;;10.60
9119;BMP180;4594;50.994;7.126;2024-02-26T06:12:39;98855.00;;;10.70
9119;BMP180;4594;50.994;7.126;2024-02-26T06:15:06;98849.00;;;10.70
9119;BMP180;4594;50.994;7.126;2024-02-26T06:17:32;98837.00;;;10.70
9119;BMP180;4594;50.994;7.126;2024-02-26T06:19:57;98854.00;;;10.60
9119;BMP180;4594;50.994;7.126;2024-02-26T06:22:25;98874.00;;;10.60
9119;BMP180;4594;50.994;7.126;2024-02-26T06:24:50;98873.00;;;10.60
9119;BMP180;4594;50.994;7.126;2024-02-26T06:27:16;98878.00;;;10.60
9119;BMP180;4594;50.994;7.126;2024-02-26T06:29:42;98884.00;;;10.60
9119;BMP180;4594;50.994;7.126;2024-02-26T06:32:07;98857.00;;;10.60
9119;BMP180;4594;50.994;7.126;2024-02-26T06:34:33;98878.00;;;10.60
9119;BMP180;4594;50.994;7.126;2024-02-26T06:36:59;98860.00;;;10.60
9119;BMP180;4594;50.994;7.126;2024-02-26T06:39:24;98882.00;;;10.60
9119;BMP180;4594;50.994;7.126;2024-02-26T06:41:50;98867.00;;;10.60
9119;BMP180;4594;50.994;7.126;2024-02-26T06:44:15;98891.00;;;10.60
9119;BMP180;4594;50.994;7.126;2024-02-26T06:46:41;98900.00;;;10.50
9119;BMP180;4594;50.994;7.126;2024-02-26T06:49:07;98905.00;;;10.50
9119;BMP180;4594;50.994;7.126;2024-02-26T06:51:32;98889.00;;;10.50
9119;BMP180;4594;50.994;7.126;2024-02-26T06:53:58;98912.00;;;10.50
9119;BMP180;4594;50.994;7.126;2024-02-26T06:56:24;98911.00;;;10.60
9119;BMP180;4594;50.994;7.126;2024-02-26T06:58:49;98898.00;;;10.60
9119;BMP180;4594;50.994;7.126;2024-02-26T07:01:15;98917.00;;;10.60
9119;BMP180;4594;50.994;7.126;2024-02-26T07:03:41;98911.00;;;10.60
9119;BMP180;4594;50.994;7.126;2024-02-26T07:06:06;98898.00;;;10.60
9119;BMP180;4594;50.994;7.126;2024-02-26T07:08:34;98914.00;;;10.60
9119;BMP180;4594;50.994;7.126;2024-02-26T07:10:59;98917.00;;;10.50
9119;BMP180;4594;50.994;7.126;2024-02-26T07:13:25;98914.00;;;10.50
9119;BMP180;4594;50.994;7.126;2024-02-26T07:15:50;98905.00;;;10.50
9119;BMP180;4594;50.994;7.126;2024-02-26T07:18:16;98940.00;;;10.50
9119;BMP180;4594;50.994;7.126;2024-02-26T07:20:42;98908.00;;;10.50
9119;BMP180;4594;50.994;7.126;2024-02-26T07:23:08;98944.00;;;10.50
9119;BMP180;4594;50.994;7.126;2024-02-26T07:25:34;98938.00;;;10.50
9119;BMP180;4594;50.994;7.126;2024-02-26T07:27:59;98916.00;;;10.50
9119;BMP180;4594;50.994;7.126;2024-02-26T07:30:25;98941.00;;;10.50
9119;BMP180;4594;50.994;7.126;2024-02-26T07:32:51;98942.00;;;10.50
9119;BMP180;4594;50.994;7.126;2024-02-26T07:35:16;98946.00;;;10.50
9119;BMP180;4594;50.994;7.126;2024-02-26T07:37:43;98944.00;;;10.50
9119;BMP180;4594;50.994;7.126;2024-02-26T07:40:09;98949.00;;;10.50
9119;BMP180;4594;50.994;7.126;2024-02-26T07:42:35;98898.00;;;10.50
9119;BMP180;4594;50.994;7.126;2024-02-26T07:45:02;98947.00;;;10.50
9119;BMP180;4594;50.994;7.126;2024-02-26T07:47:27;98957.00;;;10.50
9119;BMP180;4594;50.994;7.126;2024-02-26T07:49:53;98948.00;;;10.40
9119;BMP180;4594;50.994;7.126;2024-02-26T07:52:19;98950.00;;;10.40
9119;BMP180;4594;50.994;7.126;2024-02-26T07:54:44;98973.00;;;10.40
9119;BMP180;4594;50.994;7.126;2024-02-26T07:57:10;98940.00;;;10.40
9119;BMP180;4594;50.994;7.126;2024-02-26T07:59:36;98980.00;;;10.50
9119;BMP180;4594;50.994;7.126;2024-02-26T08:02:01;98950.00;;;10.50
9119;BMP180;4594;50.994;7.126;2024-02-26T08:04:29;98959.00;;;10.50
9119;BMP180;4594;50.994;7.126;2024-02-26T08:06:55;98949.00;;;10.50
9119;BMP180;4594;50.994;7.126;2024-02-26T08:09:21;98976.00;;;10.40
9119;BMP180;4594;50.994;7.126;2024-02-26T08:11:46;98972.00;;;10.40
9119;BMP180;4594;50.994;7.126;2024-02-26T08:14:12;98975.00;;;10.40
9119;BMP180;4594;50.994;7.126;2024-02-26T08:16:38;98980.00;;;10.40
9119;BMP180;4594;50.994;7.126;2024-02-26T08:19:04;98968.00;;;10.40
9119;BMP180;4594;50.994;7.126;2024-02-26T08:21:29;98978.00;;;10.50
9119;BMP180;4594;50.994;7.126;2024-02-26T08:23:55;98971.00;;;10.40
9119;BMP180;4594;50.994;7.126;2024-02-26T08:26:21;98973.00;;;10.40
9119;BMP180;4594;50.994;7.126;2024-02-26T08:28:48;98983.00;;;10.40
9119;BMP180;4594;50.994;7.126;2024-02-26T08:31:14;98981.00;;;10.50
9119;BMP180;4594;50.994;7.126;2024-02-26T08:33:40;98977.00;;;10.50
9119;BMP180;4594;50.994;7.126;2024-02-26T08:36:06;98971.00;;;10.50
9119;BMP180;4594;50.994;7.126;2024-02-26T08:38:32;99000.00;;;10.50
9119;BMP180;4594;50.994;7.126;2024-02-26T08:41:04;99003.00;;;10.50
9119;BMP180;4594;50.994;7.126;2024-02-26T08:43:29;99007.00;;;10.50
9119;BMP180;4594;50.994;7.126;2024-02-26T08:45:56;99002.00;;;10.50
9119;BMP180;4594;50.994;7.126;2024-02-26T08:48:22;98995.00;;;10.50
9119;BMP180;4594;50.994;7.126;2024-02-26T08:50:48;99012.00;;;10.50
9119;BMP180;4594;50.994;7.126;2024-02-26T08:53:13;99003.00;;;10.60
9119;BMP180;4594;50.994;7.126;2024-02-26T08:55:39;99029.00;;;10.60
9119;BMP180;4594;50.994;7.126;2024-02-26T08:58:04;99007.00;;;10.50
9119;BMP180;4594;50.994;7.126;2024-02-26T09:00:30;99004.00;;;10.50
9119;BMP180;4594;50.994;7.126;2024-02-26T09:02:56;99038.00;;;10.50
9119;BMP180;4594;50.994;7.126;2024-02-26T09:05:22;99012.00;;;10.40
9119;BMP180;4594;50.994;7.126;2024-02-26T09:07:47;99032.00;;;10.50
9119;BMP180;4594;50.994;7.126;2024-02-26T09:10:13;99006.00;;;10.50
9119;BMP180;4594;50.994;7.126;2024-02-26T09:12:39;98989.00;;;10.50
9119;BMP180;4594;50.994;7.126;2024-02-26T09:15:07;99040.00;;;10.40
9119;BMP180;4594;50.994;7.126;2024-02-26T09:17:33;99040.00;;;10.30
9119;BMP180;4594;50.994;7.126;2024-02-26T09:19:59;99047.00;;;10.40
9119;BMP180;4594;50.994;7.126;2024-02-26T09:22:24;99048.00;;;10.40
9119;BMP180;4594;50.994;7.126;2024-02-26T09:24:50;99027.00;;;10.40
9119;BMP180;4594;50.994;7.126;2024-02-26T09:27:17;99029.00;;;10.40
9119;BMP180;4594;50.994;7.126;2024-02-26T09:29:43;99026.00;;;10.40
9119;BMP180;4594;50.994;7.126;2024-02-26T09:32:09;99042.00;;;10.40
9119;BMP180;4594;50.994;7.126;2024-02-26T09:34:34;99063.00;;;10.40
9119;BMP180;4594;50.994;7.126;2024-02-26T09:37:00;99060.00;;;10.40
9119;BMP180;4594;50.994;7.126;2024-02-26T09:39:26;99058.00;;;10.40
9119;BMP180;4594;50.994;7.126;2024-02-26T09:41:53;99048.00;;;10.40
9119;BMP180;4594;50.994;7.126;2024-02-26T09:44:20;99063.00;;;10.40
9119;BMP180;4594;50.994;7.126;2024-02-26T09:46:49;99080.00;;;10.40
9119;BMP180;4594;50.994;7.126;2024-02-26T09:49:19;99062.00;;;10.40
9119;BMP180;4594;50.994;7.126;2024-02-26T09:51:49;99063.00;;;10.40
9119;BMP180;4594;50.994;7.126;2024-02-26T09:54:16;99074.00;;;10.40
9119;BMP180;4594;50.994;7.126;2024-02-26T09:56:43;99076.00;;;10.40
9119;BMP180;4594;50.994;7.126;2024-02-26T09:59:17;99094.00;;;10.40
9119;BMP180;4594;50.994;7.126;2024-02-26T10:01:45;99087.00;;;10.40
9119;BMP180;4594;50.994;7.126;2024-02-26T10:04:12;99066.00;;;10.40
9119;BMP180;4594;50.994;7.126;2024-02-26T10:06:40;99086.00;;;10.40
9119;BMP180;4594;50.994;7.126;2024-02-26T10:09:09;99098.00;;;10.40
9119;BMP180;4594;50.994;7.126;2024-02-26T10:11:36;99092.00;;;10.50
9119;BMP180;4594;50.994;7.126;2024-02-26T10:14:03;99082.00;;;10.50
9119;BMP180;4594;50.994;7.126;2024-02-26T10:16:29;99079.00;;;10.50
9119;BMP180;4594;50.994;7.126;2024-02-26T10:18:55;99082.00;;;10.60
9119;BMP180;4594;50.994;7.126;2024-02-26T10:21:22;99116.00;;;10.60
9119;BMP180;4594;50.994;7.126;2024-02-26T10:23:49;99118.00;;;10.70
9119;BMP180;4594;50.994;7.126;2024-02-26T10:26:16;99108.00;;;10.70
9119;BMP180;4594;50.994;7.126;2024-02-26T10:28:43;99116.00;;;10.80
9119;BMP180;4594;50.994;7.126;2024-02-26T10:31:11;99122.00;;;10.80
9119;BMP180;4594;50.994;7.126;2024-02-26T10:33:38;99120.00;;;10.80
9119;BMP180;4594;50.994;7.126;2024-02-26T10:36:05;99091.00;;;10.80
9119;BMP180;4594;50.994;7.126;2024-02-26T10:38:32;99124.00;;;10.90
9119;BMP180;4594;50.994;7.126;2024-02-26T10:40:58;99109.00;;;10.90
9119;BMP180;4594;50.994;7.126;2024-02-26T10:43:25;99122.00;;;11.00
9119;BMP180;4594;50.994;7.126;2024-02-26T10:45:51;99107.00;;;11.00
9119;BMP180;4594;50.994;7.126;2024-02-26T10:48:17;99109.00;;;11.00
9119;BMP180;4594;50.994;7.126;2024-02-26T10:50:43;99120.00;;;11.10
9119;BMP180;4594;50.994;7.126;2024-02-26T10:53:31;99125.00;;;11.10
9119;BMP180;4594;50.994;7.126;2024-02-26T10:56:04;99121.00;;;11.20
9119;BMP180;4594;50.994;7.126;2024-02-26T10:58:31;99137.00;;;11.20
9119;BMP180;4594;50.994;7.126;2024-02-26T11:00:58;99129.00;;;11.20
9119;BMP180;4594;50.994;7.126;2024-02-26T11:03:25;99123.00;;;11.20
9119;BMP180;4594;50.994;7.126;2024-02-26T11:05:52;99127.00;;;11.30
9119;BMP180;4594;50.994;7.126;2024-02-26T11:08:19;99143.00;;;11.40
9119;BMP180;4594;50.994;7.126;2024-02-26T11:10:48;99151.00;;;11.40
9119;BMP180;4594;50.994;7.126;2024-02-26T11:13:18;99148.00;;;11.50
9119;BMP180;4594;50.994;7.126;2024-02-26T11:15:46;99152.00;;;11.50
9119;BMP180;4594;50.994;7.126;2024-02-26T11:18:15;99142.00;;;11.50
9119;BMP180;4594;50.994;7.126;2024-02-26T11:20:43;99157.00;;;11.60
9119;BMP180;4594;50.994;7.126;2024-02-26T11:23:08;99156.00;;;11.60
9119;BMP180;4594;50.994;7.126;2024-02-26T11:25:36;99141.00;;;11.70
9119;BMP180;4594;50.994;7.126;2024-02-26T11:28:08;99171.00;;;11.70
9119;BMP180;4594;50.994;7.126;2024-02-26T11:30:41;99143.00;;;11.70
9119;BMP180;4594;50.994;7.126;2024-02-26T11:33:09;99165.00;;;11.70
9119;BMP180;4594;50.994;7.126;2024-02-26T11:35:38;99164.00;;;11.70
9119;BMP180;4594;50.994;7.126;2024-02-26T11:38:05;99153.00;;;11.70
9119;BMP180;4594;50.994;7.126;2024-02-26T11:40:33;99164.00;;;11.70
9119;BMP180;4594;50.994;7.126;2024-02-26T11:42:58;99166.00;;;11.80
9119;BMP180;4594;50.994;7.126;2024-02-26T11:48:16;99179.00;;;11.80
9119;BMP180;4594;50.994;7.126;2024-02-26T11:50:47;99177.00;;;11.80
9119;BMP180;4594;50.994;7.126;2024-02-26T11:53:32;99171.00;;;11.80
9119;BMP180;4594;50.994;7.126;2024-02-26T11:58:43;99165.00;;;11.90
9119;BMP180;4594;50.994;7.126;2024-02-26T12:01:44;99198.00;;;11.90
9119;BMP180;4594;50.994;7.126;2024-02-26T12:04:24;99181.00;;;11.90
9119;BMP180;4594;50.994;7.126;2024-02-26T12:07:03;99165.00;;;11.90
9119;BMP180;4594;50.994;7.126;2024-02-26T12:09:39;99198.00;;;12.00
9119;BMP180;4594;50.994;7.126;2024-02-26T12:12:10;99196.00;;;12.00
9119;BMP180;4594;50.994;7.126;2024-02-26T12:14:53;99170.00;;;12.00
9119;BMP180;4594;50.994;7.126;2024-02-26T12:17:23;99192.00;;;12.10
9119;BMP180;4594;50.994;7.126;2024-02-26T12:19:49;99175.00;;;12.20
9119;BMP180;4594;50.994;7.126;2024-02-26T12:22:16;99180.00;;;12.20
9119;BMP180;4594;50.994;7.126;2024-02-26T12:24:45;99193.00;;;12.30
9119;BMP180;4594;50.994;7.126;2024-02-26T12:27:11;99203.00;;;12.30
9119;BMP180;4594;50.994;7.126;2024-02-26T12:29:37;99203.00;;;12.40
9119;BMP180;4594;50.994;7.126;2024-02-26T12:32:05;99195.00;;;12.40
9119;BMP180;4594;50.994;7.126;2024-02-26T12:34:31;99217.00;;;12.40
9119;BMP180;4594;50.994;7.126;2024-02-26T12:36:58;99194.00;;;12.40
9119;BMP180;4594;50.994;7.126;2024-02-26T12:39:24;99202.00;;;12.40
9119;BMP180;4594;50.994;7.126;2024-02-26T12:41:50;99208.00;;;12.40
9119;BMP180;4594;50.994;7.126;2024-02-26T12:44:25;99229.00;;;12.50
9119;BMP180;4594;50.994;7.126;2024-02-26T12:47:00;99243.00;;;12.50
9119;BMP180;4594;50.994;7.126;2024-02-26T12:49:25;99236.00;;;12.50
9119;BMP180;4594;50.994;7.126;2024-02-26T12:51:51;99234.00;;;12.50
9119;BMP180;4594;50.994;7.126;2024-02-26T12:54:17;99235.00;;;12.50
9119;BMP180;4594;50.994;7.126;2024-02-26T12:56:43;99224.00;;;12.60
9119;BMP180;4594;50.994;7.126;2024-02-26T12:59:09;99249.00;;;12.60
9119;BMP180;4594;50.994;7.126;2024-02-26T13:01:35;99242.00;;;12.60
9119;BMP180;4594;50.994;7.126;2024-02-26T13:04:01;99254.00;;;12.60
9119;BMP180;4594;50.994;7.126;2024-02-26T13:06:32;99261.00;;;12.70
9119;BMP180;4594;50.994;7.126;2024-02-26T13:08:59;99270.00;;;12.80
9119;BMP180;4594;50.994;7.126;2024-02-26T13:11:25;99261.00;;;12.80
9119;BMP180;4594;50.994;7.126;2024-02-26T13:13:51;99274.00;;;12.90
9119;BMP180;4594;50.994;7.126;2024-02-26T13:16:17;99277.00;;;13.00
9119;BMP180;4594;50.994;7.126;2024-02-26T13:18:42;99275.00;;;13.00
9119;BMP180;4594;50.994;7.126;2024-02-26T13:21:13;99289.00;;;12.90
9119;BMP180;4594;50.994;7.126;2024-02-26T13:23:41;99283.00;;;12.90
9119;BMP180;4594;50.994;7.126;2024-02-26T13:26:11;99283.00;;;12.90
9119;BMP180;4594;50.994;7.126;2024-02-26T13:28:37;99282.00;;;12.90
9119;BMP180;4594;50.994;7.126;2024-02-26T13:31:03;99297.00;;;12.90
9119;BMP180;4594;50.994;7.126;2024-02-26T13:33:33;99275.00;;;13.00
9119;BMP180;4594;50.994;7.126;2024-02-26T13:35:59;99283.00;;;13.00
9119;BMP180;4594;50.994;7.126;2024-02-26T13:38:27;99296.00;;;13.00
9119;BMP180;4594;50.994;7.126;2024-02-26T13:40:54;99288.00;;;13.00
9119;BMP180;4594;50.994;7.126;2024-02-26T13:43:20;99294.00;;;13.00
9119;BMP180;4594;50.994;7.126;2024-02-26T13:45:47;99306.00;;;13.00
9119;BMP180;4594;50.994;7.126;2024-02-26T13:48:13;99308.00;;;13.00
9119;BMP180;4594;50.994;7.126;2024-02-26T13:50:41;99300.00;;;13.00
9119;BMP180;4594;50.994;7.126;2024-02-26T13:53:09;99316.00;;;13.00
9119;BMP180;4594;50.994;7.126;2024-02-26T13:55:34;99289.00;;;13.00
9119;BMP180;4594;50.994;7.126;2024-02-26T13:58:01;99299.00;;;13.00
9119;BMP180;4594;50.994;7.126;2024-02-26T14:00:30;99319.00;;;13.00
9119;BMP180;4594;50.994;7.126;2024-02-26T14:03:01;99322.00;;;13.00
9119;BMP180;4594;50.994;7.126;2024-02-26T14:05:27;99293.00;;;13.00
9119;BMP180;4594;50.994;7.126;2024-02-26T14:07:53;99329.00;;;13.10
9119;BMP180;4594;50.994;7.126;2024-02-26T14:10:20;99317.00;;;13.10
9119;BMP180;4594;50.994;7.126;2024-02-26T14:12:47;99326.00;;;13.10
9119;BMP180;4594;50.994;7.126;2024-02-26T14:15:12;99337.00;;;13.10
9119;BMP180;4594;50.994;7.126;2024-02-26T14:17:38;99331.00;;;13.10
9119;BMP180;4594;50.994;7.126;2024-02-26T14:20:04;99331.00;;;13.10
9119;BMP180;4594;50.994;7.126;2024-02-26T14:22:30;99335.00;;;13.00
9119;BMP180;4594;50.994;7.126;2024-02-26T14:24:57;99337.00;;;13.00
9119;BMP180;4594;50.994;7.126;2024-02-26T14:27:23;99328.00;;;13.10
9119;BMP180;4594;50.994;7.126;2024-02-26T14:29:49;99341.00;;;13.10
9119;BMP180;4594;50.994;7.126;2024-02-26T14:32:15;99347.00;;;13.10
9119;BMP180;4594;50.994;7.126;2024-02-26T14:34:41;99333.00;;;13.10
9119;BMP180;4594;50.994;7.126;2024-02-26T14:37:07;99338.00;;;13.20